createdAt,value
2018-12-04T00:02:17.542Z,-1.25
2018-12-04T00:04:43.769Z,-1.46
2018-12-04T00:07:09.937Z,-1.63
2018-12-04T00:09:36.095Z,-1.55
2018-12-04T00:12:02.290Z,-1.50
2018-12-04T00:14:28.457Z,-1.33
2018-12-04T00:16:54.594Z,-1.41
2018-12-04T00:19:20.802Z,-1.57
2018-12-04T00:21:46.968Z,-1.50
2018-12-04T00:24:13.125Z,-1.40
2018-12-04T00:26:39.329Z,-1.26
2018-12-04T00:29:05.485Z,-1.27
2018-12-04T00:31:31.657Z,-1.09
2018-12-04T00:33:57.839Z,-0.95
2018-12-04T00:36:23.997Z,-0.75
2018-12-04T00:38:50.154Z,-0.69
2018-12-04T00:41:16.359Z,-0.86
2018-12-04T00:43:42.541Z,-0.77
2018-12-04T00:46:08.697Z,-1.06
2018-12-04T00:48:34.897Z,-0.95
2018-12-04T00:51:01.108Z,-0.83
2018-12-04T00:53:27.337Z,-0.73
2018-12-04T00:55:53.549Z,-1.03
2018-12-04T00:58:19.744Z,-1.33
2018-12-04T01:00:45.909Z,-1.38
2018-12-04T01:03:12.104Z,-1.63
2018-12-04T01:05:38.274Z,-1.47
2018-12-04T01:08:04.435Z,-1.29
2018-12-04T01:10:30.629Z,-1.50
2018-12-04T01:12:56.781Z,-1.45
2018-12-04T01:15:22.941Z,-1.42
2018-12-04T01:17:49.122Z,-1.67
2018-12-04T01:20:15.288Z,-1.73
2018-12-04T01:22:41.459Z,-2.02
2018-12-04T01:25:07.660Z,-2.40
2018-12-04T01:27:33.821Z,-2.26
2018-12-04T01:29:59.985Z,-2.36
2018-12-04T01:32:26.177Z,-2.13
2018-12-04T01:34:52.346Z,-2.13
2018-12-04T01:37:18.505Z,-1.90
2018-12-04T01:39:44.702Z,-1.70
2018-12-04T01:42:10.862Z,-1.51
2018-12-04T01:47:13.363Z,-1.53
2018-12-04T01:49:39.530Z,-1.74
2018-12-04T01:52:05.673Z,-1.62
2018-12-04T01:54:31.853Z,-1.67
2018-12-04T01:56:58.049Z,-1.53
2018-12-04T01:59:24.201Z,-1.64
2018-12-04T02:01:50.408Z,-1.43
2018-12-04T02:04:16.577Z,-1.23
2018-12-04T02:06:42.753Z,-1.24
2018-12-04T02:09:09.025Z,-1.24
2018-12-04T02:11:35.188Z,-1.51
2018-12-04T02:14:01.348Z,-1.35
2018-12-04T02:16:27.544Z,-1.08
2018-12-04T02:18:53.694Z,-0.99
2018-12-04T02:21:19.873Z,-0.82
2018-12-04T02:23:46.062Z,-1.21
2018-12-04T02:26:12.234Z,-1.39
2018-12-04T02:28:40.189Z,-1.20
2018-12-04T02:31:06.398Z,-1.59
2018-12-04T02:33:32.550Z,-1.35
2018-12-04T02:35:58.706Z,-1.28
2018-12-04T02:38:24.889Z,-1.10
2018-12-04T02:40:51.062Z,-0.99
2018-12-04T02:43:17.227Z,-1.00
2018-12-04T02:45:43.413Z,-0.97
2018-12-04T02:48:09.571Z,-1.17
2018-12-04T02:50:35.773Z,-1.06
2018-12-04T02:53:02.093Z,-1.14
2018-12-04T02:55:28.273Z,-1.30
2018-12-04T02:57:54.425Z,-1.48
2018-12-04T03:00:20.634Z,-1.30
2018-12-04T03:02:46.780Z,-1.41
2018-12-04T03:05:13.091Z,-1.58
2018-12-04T03:07:39.278Z,-1.64
2018-12-04T03:10:05.684Z,-1.64
2018-12-04T03:12:31.847Z,-1.56
2018-12-04T03:14:58.029Z,-1.52
2018-12-04T03:17:24.265Z,-1.42
2018-12-04T03:19:50.432Z,-1.20
2018-12-04T03:22:16.609Z,-1.24
2018-12-04T03:24:42.758Z,-1.33
2018-12-04T03:27:08.898Z,-1.38
2018-12-04T03:29:35.119Z,-1.32
2018-12-04T03:32:01.424Z,-1.33
2018-12-04T03:34:27.584Z,-1.66
2018-12-04T03:36:53.765Z,-1.82
2018-12-04T03:39:19.971Z,-2.60
2018-12-04T03:41:46.130Z,-2.72
2018-12-04T03:44:12.318Z,-2.37
2018-12-04T03:46:38.463Z,-2.26
2018-12-04T03:49:04.604Z,-1.89
2018-12-04T03:51:30.820Z,-1.82
2018-12-04T03:53:56.971Z,-1.89
2018-12-04T03:56:23.126Z,-1.77
2018-12-04T03:58:49.315Z,-1.68
2018-12-04T04:01:15.489Z,-1.70
2018-12-04T04:03:41.813Z,-1.77
2018-12-04T04:06:08.009Z,-1.84
2018-12-04T04:08:34.201Z,-1.95
2018-12-04T04:11:00.348Z,-2.32
2018-12-04T04:13:26.542Z,-2.02
2018-12-04T04:15:52.710Z,-2.01
2018-12-04T04:18:18.864Z,-1.93
2018-12-04T04:20:45.058Z,-2.26
2018-12-04T04:23:11.206Z,-2.20
2018-12-04T04:25:37.490Z,-2.39
2018-12-04T04:28:03.708Z,-2.41
2018-12-04T04:30:29.877Z,-2.21
2018-12-04T04:32:56.033Z,-2.13
2018-12-04T04:35:22.219Z,-2.05
2018-12-04T04:37:48.362Z,-2.26
2018-12-04T04:40:14.523Z,-1.92
2018-12-04T04:42:40.784Z,-1.57
2018-12-04T04:45:07.025Z,-1.46
2018-12-04T04:47:33.181Z,-1.31
2018-12-04T04:49:59.403Z,-1.41
2018-12-04T04:52:25.550Z,-1.45
2018-12-04T04:54:51.709Z,-1.32
2018-12-04T04:57:18.024Z,-1.30
2018-12-04T04:59:44.185Z,-1.34
2018-12-04T05:02:10.351Z,-1.36
2018-12-04T05:04:36.575Z,-1.79
2018-12-04T05:07:02.764Z,-1.91
2018-12-04T05:09:28.945Z,-2.06
2018-12-04T05:11:55.153Z,-2.03
2018-12-04T05:14:21.294Z,-1.70
2018-12-04T05:16:47.453Z,-1.60
2018-12-04T05:19:13.679Z,-1.66
2018-12-04T05:21:39.830Z,-1.54
2018-12-04T05:24:05.994Z,-1.62
2018-12-04T05:26:32.184Z,-1.81
2018-12-04T05:28:58.340Z,-1.57
2018-12-04T05:31:24.497Z,-1.28
2018-12-04T05:33:50.693Z,-1.52
2018-12-04T05:36:16.873Z,-2.22
2018-12-04T05:38:43.028Z,-1.62
2018-12-04T05:41:09.265Z,-1.53
2018-12-04T05:43:35.422Z,-1.66
2018-12-04T05:46:01.595Z,-1.53
2018-12-04T05:48:27.781Z,-1.70
2018-12-04T05:50:53.934Z,-1.83
2018-12-04T05:53:29.423Z,-1.61
2018-12-04T05:55:55.581Z,-1.51
2018-12-04T05:58:21.750Z,-1.05
2018-12-04T06:00:47.962Z,-0.86
2018-12-04T06:03:14.139Z,-0.78
2018-12-04T06:05:40.302Z,-0.94
2018-12-04T06:08:06.490Z,-1.03
2018-12-04T06:10:32.669Z,-1.01
2018-12-04T06:12:58.837Z,-0.97
2018-12-04T06:15:25.043Z,-1.08
2018-12-04T06:17:51.218Z,-1.35
2018-12-04T06:20:17.387Z,-1.35
2018-12-04T06:22:43.605Z,-1.62
2018-12-04T06:25:09.857Z,-1.75
2018-12-04T06:27:36.033Z,-1.41
2018-12-04T06:30:02.358Z,-1.16
2018-12-04T06:32:28.513Z,-1.36
2018-12-04T06:34:54.724Z,-1.37
2018-12-04T06:37:20.913Z,-1.01
2018-12-04T06:39:47.065Z,-0.76
2018-12-04T06:42:13.238Z,-0.75
2018-12-04T06:44:39.417Z,-0.37
2018-12-04T06:47:05.556Z,-0.77
2018-12-04T06:49:31.705Z,-0.92
2018-12-04T06:51:57.897Z,-0.34
2018-12-04T06:54:24.036Z,-0.01
2018-12-04T06:56:50.169Z,0.57
2018-12-04T06:59:16.357Z,0.80
2018-12-04T07:01:42.518Z,0.64
2018-12-04T07:04:08.681Z,1.11
2018-12-04T07:06:34.883Z,1.19
2018-12-04T07:09:01.050Z,1.55
2018-12-04T07:11:27.206Z,1.50
2018-12-04T07:13:53.526Z,1.15
2018-12-04T07:16:19.690Z,1.67
2018-12-04T07:18:45.841Z,1.82
2018-12-04T07:21:12.029Z,2.22
2018-12-04T07:23:38.188Z,2.22
2018-12-04T07:26:04.354Z,1.73
2018-12-04T07:28:30.553Z,2.28
2018-12-04T07:30:56.722Z,2.18
2018-12-04T07:33:22.883Z,2.41
2018-12-04T07:35:49.104Z,2.26
2018-12-04T07:38:15.265Z,2.31
2018-12-04T07:40:41.400Z,2.38
2018-12-04T07:43:07.601Z,1.93
2018-12-04T07:45:33.761Z,1.72
2018-12-04T07:47:59.922Z,2.03
2018-12-04T07:50:26.113Z,3.08
2018-12-04T07:52:52.319Z,3.77
2018-12-04T07:55:18.592Z,4.14
2018-12-04T07:57:44.777Z,3.57
2018-12-04T08:00:10.978Z,3.41
2018-12-04T08:02:37.130Z,3.81
2018-12-04T08:05:04.477Z,4.00
2018-12-04T08:07:30.633Z,3.69
2018-12-04T08:09:56.837Z,3.00
2018-12-04T08:12:23.106Z,3.13
2018-12-04T08:14:49.292Z,2.47
2018-12-04T08:17:15.466Z,2.61
2018-12-04T08:19:41.641Z,1.99
2018-12-04T08:22:07.793Z,2.14
2018-12-04T08:24:34.588Z,2.17
2018-12-04T08:27:00.998Z,2.29
2018-12-04T08:29:27.165Z,2.44
2018-12-04T08:31:53.349Z,2.45
2018-12-04T08:34:19.529Z,2.36
2018-12-04T08:36:45.689Z,2.76
2018-12-04T08:39:13.217Z,3.08
2018-12-04T08:41:39.850Z,2.96
2018-12-04T08:44:06.004Z,2.93
2018-12-04T08:46:32.161Z,3.66
2018-12-04T08:48:58.382Z,4.72
2018-12-04T08:51:24.525Z,5.47
2018-12-04T08:53:50.686Z,5.87
2018-12-04T08:56:16.876Z,5.68
2018-12-04T08:58:43.020Z,5.96
2018-12-04T09:01:09.174Z,4.76
2018-12-04T09:03:35.373Z,4.47
2018-12-04T09:06:01.554Z,3.70
2018-12-04T09:08:27.706Z,3.21
2018-12-04T09:10:53.905Z,3.38
2018-12-04T09:13:20.213Z,3.19
2018-12-04T09:15:46.353Z,2.94
2018-12-04T09:18:12.568Z,2.62
2018-12-04T09:20:38.912Z,1.97
2018-12-04T09:23:05.141Z,2.02
2018-12-04T09:25:31.480Z,2.29
2018-12-04T09:27:57.769Z,1.66
2018-12-04T09:30:24.066Z,0.91
2018-12-04T09:32:50.273Z,2.05
2018-12-04T09:35:16.442Z,3.51
2018-12-04T09:37:42.630Z,3.41
2018-12-04T09:40:08.833Z,3.77
2018-12-04T09:42:35.954Z,3.30
2018-12-04T09:45:02.141Z,2.65
2018-12-04T09:47:28.323Z,3.57
2018-12-04T09:49:54.479Z,2.74
2018-12-04T09:52:20.630Z,1.60
2018-12-04T09:54:46.800Z,0.74
2018-12-04T09:57:12.962Z,1.28
2018-12-04T09:59:39.640Z,2.10
2018-12-04T10:02:06.106Z,2.88
2018-12-04T10:04:32.271Z,1.56
2018-12-04T10:06:58.417Z,1.64
2018-12-04T10:09:24.596Z,1.63
2018-12-04T10:11:50.775Z,2.09
2018-12-04T10:14:16.945Z,3.19
2018-12-04T10:16:43.125Z,3.14
2018-12-04T10:19:09.291Z,1.84
2018-12-04T10:21:35.453Z,1.89
2018-12-04T10:24:01.657Z,3.77
2018-12-04T10:26:27.885Z,3.54
2018-12-04T10:28:54.129Z,2.97
2018-12-04T10:31:20.354Z,3.32
2018-12-04T10:33:46.527Z,3.57
2018-12-04T10:36:12.717Z,3.66
2018-12-04T10:38:38.946Z,4.34
2018-12-04T10:41:05.155Z,5.54
2018-12-04T10:43:31.360Z,6.47
2018-12-04T10:45:57.597Z,6.08
2018-12-04T10:48:23.754Z,6.65
2018-12-04T10:50:49.901Z,6.84
2018-12-04T10:53:16.120Z,6.90
2018-12-04T10:55:42.342Z,6.88
2018-12-04T10:58:08.498Z,6.25
2018-12-04T11:00:35.817Z,6.37
2018-12-04T11:03:07.128Z,6.27
2018-12-04T11:05:33.354Z,6.46
2018-12-04T11:08:01.037Z,6.21
2018-12-04T11:10:27.213Z,5.27
2018-12-04T11:12:53.414Z,5.70
2018-12-04T11:15:19.616Z,5.40
2018-12-04T11:17:45.784Z,5.56
2018-12-04T11:20:12.085Z,5.29
2018-12-04T11:22:38.275Z,5.48
2018-12-04T11:25:05.985Z,5.81
2018-12-04T11:27:32.146Z,5.57
2018-12-04T11:29:58.346Z,4.75
2018-12-04T11:32:24.485Z,4.93
2018-12-04T11:34:51.366Z,5.74
2018-12-04T11:37:17.573Z,6.29
2018-12-04T11:39:43.714Z,6.84
2018-12-04T11:42:09.896Z,6.79
2018-12-04T11:44:36.094Z,7.42
2018-12-04T11:47:02.277Z,7.19
2018-12-04T11:49:28.445Z,6.37
2018-12-04T11:51:54.663Z,6.18
2018-12-04T11:54:20.834Z,6.57
2018-12-04T11:56:47.002Z,6.55
2018-12-04T11:59:13.193Z,5.76
2018-12-04T12:01:39.374Z,4.81
2018-12-04T12:04:05.546Z,4.49
2018-12-04T12:06:31.736Z,3.85
2018-12-04T12:08:57.877Z,4.15
2018-12-04T12:11:24.037Z,4.39
2018-12-04T12:13:50.225Z,4.57
2018-12-04T12:16:16.376Z,4.56
2018-12-04T12:18:42.547Z,4.36
2018-12-04T12:21:08.734Z,4.05
2018-12-04T12:23:34.881Z,3.88
2018-12-04T12:26:01.037Z,3.80
2018-12-04T12:28:27.283Z,3.37
2018-12-04T12:30:53.452Z,3.35
2018-12-04T12:33:19.615Z,3.62
2018-12-04T12:35:45.801Z,3.62
2018-12-04T12:38:11.946Z,3.61
2018-12-04T12:40:38.191Z,4.33
2018-12-04T12:43:04.452Z,4.75
2018-12-04T12:45:30.601Z,4.01
2018-12-04T12:47:56.749Z,3.18
2018-12-04T12:50:22.962Z,3.18
2018-12-04T12:52:49.125Z,3.50
2018-12-04T12:55:15.306Z,3.38
2018-12-04T12:57:41.522Z,3.60
2018-12-04T13:00:08.665Z,3.86
2018-12-04T13:02:34.993Z,3.76
2018-12-04T13:05:01.258Z,3.99
2018-12-04T13:07:27.467Z,3.64
2018-12-04T13:09:53.650Z,3.73
2018-12-04T13:12:19.857Z,3.21
2018-12-04T13:14:46.019Z,2.54
2018-12-04T13:17:12.216Z,2.14
2018-12-04T13:19:38.406Z,2.25
2018-12-04T13:22:04.555Z,2.57
2018-12-04T13:24:30.719Z,2.68
2018-12-04T13:26:56.922Z,2.69
2018-12-04T13:29:23.078Z,2.68
2018-12-04T13:31:49.274Z,2.51
2018-12-04T13:34:15.477Z,2.02
2018-12-04T13:36:42.303Z,2.30
2018-12-04T13:39:08.915Z,1.90
2018-12-04T13:41:35.238Z,1.86
2018-12-04T13:44:01.419Z,2.54
2018-12-04T13:46:27.572Z,2.50
2018-12-04T13:48:53.758Z,2.43
2018-12-04T13:51:19.927Z,2.29
2018-12-04T13:53:46.142Z,2.34
2018-12-04T13:56:12.334Z,1.92
2018-12-04T13:58:38.494Z,1.88
2018-12-04T14:01:04.689Z,1.68
2018-12-04T14:03:30.913Z,1.43
2018-12-04T14:05:57.094Z,1.13
2018-12-04T14:08:23.277Z,0.99
2018-12-04T14:10:49.494Z,1.09
2018-12-04T14:13:15.683Z,0.78
2018-12-04T14:15:41.886Z,0.85
2018-12-04T14:18:08.131Z,1.06
2018-12-04T14:20:34.343Z,1.40
2018-12-04T14:23:00.513Z,1.32
2018-12-04T14:25:26.730Z,1.35
2018-12-04T14:27:52.890Z,1.32
2018-12-04T14:30:19.070Z,1.40
2018-12-04T14:32:45.384Z,1.39
2018-12-04T14:35:11.693Z,1.57
2018-12-04T14:37:37.890Z,1.59
2018-12-04T14:40:04.645Z,1.55
2018-12-04T14:42:30.833Z,1.48
2018-12-04T14:44:57.019Z,1.45
2018-12-04T14:47:23.213Z,1.44
2018-12-04T14:49:49.439Z,1.38
2018-12-04T14:52:15.666Z,1.23
2018-12-04T14:54:41.879Z,0.98
2018-12-04T14:57:08.068Z,1.17
2018-12-04T14:59:34.309Z,0.98
2018-12-04T15:02:00.538Z,1.09
2018-12-04T15:04:26.748Z,0.94
2018-12-04T15:06:53.038Z,1.11
2018-12-04T15:09:19.271Z,0.83
2018-12-04T15:11:45.709Z,0.78
2018-12-04T15:14:11.875Z,0.65
2018-12-04T15:16:38.078Z,0.60
2018-12-04T15:19:04.393Z,-0.17
2018-12-04T15:21:30.599Z,-0.32
2018-12-04T15:23:56.794Z,0.02
2018-12-04T15:26:22.941Z,-0.33
2018-12-04T15:28:49.132Z,-0.36
2018-12-04T15:31:15.313Z,-0.59
2018-12-04T15:33:41.530Z,-0.72
2018-12-04T15:36:07.794Z,-0.50
2018-12-04T15:38:33.990Z,-0.59
2018-12-04T15:41:09.410Z,-0.84
2018-12-04T15:43:35.747Z,-0.73
2018-12-04T15:46:01.940Z,-0.53
2018-12-04T15:48:28.119Z,-0.40
2018-12-04T15:50:59.860Z,-0.74
2018-12-04T15:53:22.556Z,-0.34
2018-12-04T15:55:48.945Z,-0.83
2018-12-04T15:58:15.233Z,-0.86
2018-12-04T16:00:41.538Z,-0.51
2018-12-04T16:03:07.718Z,-0.37
2018-12-04T16:05:33.959Z,-0.38
2018-12-04T16:08:00.136Z,-0.20
2018-12-04T16:10:26.296Z,-0.11
2018-12-04T16:12:52.506Z,0.09
2018-12-04T16:15:18.702Z,0.31
2018-12-04T16:17:44.895Z,0.34
2018-12-04T16:20:11.137Z,0.30
2018-12-04T16:22:37.320Z,0.38
2018-12-04T16:25:05.090Z,0.72
2018-12-04T16:27:31.285Z,0.81
2018-12-04T16:29:57.482Z,0.78
2018-12-04T16:32:23.687Z,0.85
2018-12-04T16:34:49.874Z,0.34
2018-12-04T16:37:16.052Z,-0.19
2018-12-04T16:39:42.218Z,0.27
2018-12-04T16:42:08.537Z,0.15
2018-12-04T16:44:34.705Z,0.10
2018-12-04T16:47:00.883Z,-0.61
2018-12-04T16:49:27.101Z,-0.59
2018-12-04T16:51:53.255Z,-0.45
2018-12-04T16:54:19.422Z,0.01
2018-12-04T16:56:45.670Z,0.23
2018-12-04T16:59:11.876Z,0.60
2018-12-04T17:01:38.054Z,0.41
2018-12-04T17:04:04.253Z,0.05
2018-12-04T17:06:30.465Z,-0.19
2018-12-04T17:08:56.642Z,-0.09
2018-12-04T17:11:22.858Z,0.33
2018-12-04T17:13:49.025Z,0.52
2018-12-04T17:16:15.331Z,-0.31
2018-12-04T17:18:41.535Z,-0.08
2018-12-04T17:21:07.696Z,0.42
2018-12-04T17:23:33.918Z,0.42
2018-12-04T17:26:00.162Z,0.57
2018-12-04T17:28:26.307Z,0.73
2018-12-04T17:30:52.478Z,0.66
2018-12-04T17:33:18.694Z,0.78
2018-12-04T17:35:44.874Z,0.89
2018-12-04T17:38:11.057Z,0.89
2018-12-04T17:40:37.262Z,1.09
2018-12-04T17:43:03.481Z,0.88
2018-12-04T17:45:29.656Z,1.00
2018-12-04T17:50:20.894Z,0.24
2018-12-04T17:52:47.051Z,0.47
2018-12-04T17:55:13.221Z,0.17
2018-12-04T17:57:39.449Z,0.07
2018-12-04T18:00:07.542Z,0.32
2018-12-04T18:02:33.699Z,0.63
2018-12-04T18:04:59.913Z,0.72
2018-12-04T18:07:26.074Z,0.96
2018-12-04T18:09:52.294Z,1.03
2018-12-04T18:12:18.489Z,1.16
2018-12-04T18:14:44.694Z,0.16
2018-12-04T18:17:10.857Z,0.60
2018-12-04T18:19:37.068Z,0.53
2018-12-04T18:22:03.298Z,0.35
2018-12-04T18:24:30.365Z,0.45
2018-12-04T18:26:56.586Z,0.38
2018-12-04T18:29:22.734Z,0.23
2018-12-04T18:31:48.919Z,-0.10
2018-12-04T18:34:15.213Z,-0.27
2018-12-04T18:36:41.366Z,-0.83
2018-12-04T18:39:07.677Z,-1.36
2018-12-04T18:41:33.873Z,-1.01
2018-12-04T18:44:00.583Z,-0.33
2018-12-04T18:46:26.725Z,-0.05
2018-12-04T18:48:53.037Z,-0.08
2018-12-04T18:51:19.194Z,0.00
2018-12-04T18:53:45.350Z,0.11
2018-12-04T18:56:11.550Z,0.04
2018-12-04T18:58:37.730Z,0.04
2018-12-04T19:01:03.931Z,0.04
2018-12-04T19:03:30.261Z,0.14
2018-12-04T19:05:56.438Z,0.19
2018-12-04T19:11:16.114Z,-0.02
2018-12-04T19:13:42.522Z,-0.05
2018-12-04T19:16:08.781Z,-0.08
2018-12-04T19:18:34.934Z,-0.16
2018-12-04T19:21:01.151Z,0.08
2018-12-04T19:23:27.321Z,0.06
2018-12-04T19:25:53.542Z,-0.13
2018-12-04T19:28:19.745Z,-0.32
2018-12-04T19:30:45.918Z,-0.29
2018-12-04T19:33:12.074Z,-0.23
2018-12-04T19:35:38.249Z,-0.27
2018-12-04T19:38:04.412Z,-0.30
2018-12-04T19:40:30.620Z,-0.19
2018-12-04T19:42:56.815Z,-0.21
2018-12-04T19:45:22.978Z,-0.25
2018-12-04T19:47:49.432Z,-0.34
2018-12-04T19:50:15.621Z,-0.20
2018-12-04T19:52:41.782Z,-0.15
2018-12-04T19:55:07.983Z,-0.65
2018-12-04T19:57:34.153Z,-0.89
2018-12-04T20:00:00.340Z,-0.76
2018-12-04T20:02:26.562Z,-1.04
2018-12-04T20:04:53.169Z,-0.80
2018-12-04T20:07:19.521Z,-0.41
2018-12-04T20:09:45.814Z,-0.39
2018-12-04T20:12:12.422Z,-0.50
2018-12-04T20:14:38.597Z,-0.73
2018-12-04T20:17:05.173Z,-0.53
2018-12-04T20:19:31.442Z,-0.63
2018-12-04T20:21:57.619Z,-0.52
2018-12-04T20:24:23.790Z,-0.73
2018-12-04T20:26:50.002Z,-0.64
2018-12-04T20:29:16.177Z,-0.61
2018-12-04T20:31:42.334Z,-0.74
2018-12-04T20:34:08.542Z,-0.71
2018-12-04T20:36:34.719Z,-0.81
2018-12-04T20:39:01.240Z,-0.86
2018-12-04T20:41:27.453Z,-1.02
2018-12-04T20:43:53.617Z,-0.93
2018-12-04T20:46:19.778Z,-1.07
2018-12-04T20:48:45.982Z,-1.43
2018-12-04T20:51:12.153Z,-1.25
2018-12-04T20:53:38.317Z,-0.95
2018-12-04T20:56:04.498Z,-0.98
2018-12-04T20:58:30.647Z,-0.99
2018-12-04T21:00:56.797Z,-0.92
2018-12-04T21:03:23.019Z,-0.84
2018-12-04T21:05:49.190Z,-0.76
2018-12-04T21:08:15.362Z,-0.74
2018-12-04T21:10:41.571Z,-1.02
2018-12-04T21:13:14.285Z,-1.13
2018-12-04T21:15:35.944Z,-1.09
2018-12-04T21:18:02.137Z,-1.18
2018-12-04T21:20:28.362Z,-1.43
2018-12-04T21:22:54.630Z,-1.40
2018-12-04T21:25:20.822Z,-1.23
2018-12-04T21:27:53.073Z,-1.20
2018-12-04T21:30:25.179Z,-1.15
2018-12-04T21:32:57.225Z,-1.22
2018-12-04T21:35:29.464Z,-1.28
2018-12-04T21:41:10.638Z,-1.28
2018-12-04T21:43:42.727Z,-1.35
2018-12-04T21:46:15.081Z,-1.39
2018-12-04T21:48:41.256Z,-1.43
2018-12-04T21:51:07.453Z,-1.62
2018-12-04T21:53:33.650Z,-1.71
2018-12-04T21:55:59.807Z,-1.76
2018-12-04T21:58:25.962Z,-2.08
2018-12-04T22:00:52.157Z,-1.88
2018-12-04T22:03:18.300Z,-1.65
2018-12-04T22:05:44.473Z,-1.58
2018-12-04T22:08:10.685Z,-1.95
2018-12-04T22:10:36.851Z,-1.56
2018-12-04T22:13:03.054Z,-1.28
2018-12-04T22:15:29.273Z,-1.40
2018-12-04T22:17:55.455Z,-1.39
2018-12-04T22:20:21.605Z,-1.56
2018-12-04T22:22:47.798Z,-1.54
2018-12-04T22:25:13.949Z,-1.72
2018-12-04T22:27:40.133Z,-1.62
2018-12-04T22:30:07.690Z,-1.62
2018-12-04T22:32:33.859Z,-1.49
2018-12-04T22:35:00.037Z,-1.30
2018-12-04T22:37:26.223Z,-1.46
2018-12-04T22:39:52.390Z,-1.75
2018-12-04T22:42:18.541Z,-1.78
2018-12-04T22:44:44.753Z,-1.52
2018-12-04T22:47:10.929Z,-1.41
2018-12-04T22:49:37.102Z,-1.38
2018-12-04T22:52:03.326Z,-1.34
2018-12-04T22:54:29.498Z,-1.40
2018-12-04T22:56:55.657Z,-1.52
2018-12-04T22:59:21.840Z,-1.66
2018-12-04T23:01:48.130Z,-1.56
2018-12-04T23:04:14.288Z,-1.50
2018-12-04T23:06:40.524Z,-1.51
2018-12-04T23:09:07.736Z,-1.45
2018-12-04T23:11:33.934Z,-1.44
2018-12-04T23:14:00.117Z,-1.54
2018-12-04T23:16:26.550Z,-1.50
2018-12-04T23:18:52.845Z,-1.61
2018-12-04T23:21:19.066Z,-1.56
2018-12-04T23:23:45.258Z,-1.58
2018-12-04T23:26:11.429Z,-1.78
2018-12-04T23:28:37.622Z,-1.84
2018-12-04T23:31:03.817Z,-1.67
2018-12-04T23:33:29.986Z,-1.63
2018-12-04T23:35:56.192Z,-1.69
2018-12-04T23:38:22.362Z,-1.82
2018-12-04T23:40:48.534Z,-1.83
2018-12-04T23:43:14.717Z,-1.85
2018-12-04T23:45:40.872Z,-1.65
2018-12-04T23:48:07.036Z,-1.68
2018-12-04T23:50:33.218Z,-1.80
2018-12-04T23:52:59.458Z,-1.85
2018-12-04T23:55:25.682Z,-1.97
2018-12-04T23:57:51.864Z,-1.81
